createdAt,value
2019-05-26T00:01:39.603Z,100.00
2019-05-26T00:06:41.569Z,100.00
2019-05-26T00:11:43.578Z,100.00
2019-05-26T00:16:45.677Z,100.00
2019-05-26T00:21:48.859Z,100.00
2019-05-26T00:26:50.835Z,100.00
2019-05-26T00:31:52.640Z,100.00
2019-05-26T00:36:54.563Z,100.00
2019-05-26T00:41:56.400Z,100.00
2019-05-26T00:46:58.465Z,100.00
2019-05-26T00:52:02.824Z,100.00
2019-05-26T00:57:07.518Z,100.00
2019-05-26T01:02:09.340Z,100.00
2019-05-26T01:07:11.321Z,100.00
2019-05-26T01:12:16.170Z,100.00
2019-05-26T01:17:19.529Z,100.00
2019-05-26T01:22:21.375Z,100.00
2019-05-26T01:27:23.341Z,100.00
2019-05-26T01:32:25.272Z,100.00
2019-05-26T01:37:31.525Z,100.00
2019-05-26T01:42:33.333Z,100.00
2019-05-26T01:47:37.017Z,100.00
2019-05-26T01:52:40.617Z,100.00
2019-05-26T01:57:42.452Z,100.00
2019-05-26T02:02:47.388Z,100.00
2019-05-26T02:07:49.483Z,100.00
2019-05-26T02:12:52.473Z,100.00
2019-05-26T02:17:54.339Z,100.00
2019-05-26T02:22:56.148Z,100.00
2019-05-26T02:27:58.070Z,100.00
2019-05-26T02:33:00.042Z,100.00
2019-05-26T02:38:01.847Z,100.00
2019-05-26T02:43:03.730Z,100.00
2019-05-26T02:48:05.711Z,100.00
2019-05-26T02:53:07.578Z,100.00
2019-05-26T02:58:09.375Z,100.00
2019-05-26T03:03:14.265Z,100.00
2019-05-26T03:08:16.348Z,100.00
2019-05-26T03:13:18.353Z,100.00
2019-05-26T03:18:20.139Z,100.00
2019-05-26T03:23:22.252Z,100.00
2019-05-26T03:28:24.073Z,100.00
2019-05-26T03:33:26.108Z,100.00
2019-05-26T03:38:27.994Z,100.00
2019-05-26T03:43:29.781Z,100.00
2019-05-26T03:48:31.538Z,100.00
2019-05-26T03:53:33.346Z,100.00
2019-05-26T03:58:35.148Z,100.00
2019-05-26T04:03:36.996Z,100.00
2019-05-26T04:08:38.909Z,100.00
2019-05-26T04:13:40.992Z,100.00
2019-05-26T04:18:42.798Z,100.00
2019-05-26T04:23:44.863Z,100.00
2019-05-26T04:28:46.700Z,100.00
2019-05-26T04:33:48.678Z,100.00
2019-05-26T04:38:50.481Z,100.00
2019-05-26T04:43:52.478Z,100.00
2019-05-26T04:48:54.311Z,100.00
2019-05-26T04:53:55.908Z,100.00
2019-05-26T04:58:58.114Z,100.00
2019-05-26T05:03:59.828Z,100.00
2019-05-26T05:09:01.738Z,100.00
2019-05-26T05:14:03.940Z,100.00
2019-05-26T05:19:07.988Z,100.00
2019-05-26T05:24:09.941Z,100.00
2019-05-26T05:29:11.833Z,100.00
2019-05-26T05:34:13.779Z,100.00
2019-05-26T05:39:15.473Z,100.00
2019-05-26T05:44:17.329Z,100.00
2019-05-26T05:49:19.180Z,100.00
2019-05-26T05:54:21.110Z,100.00
2019-05-26T05:59:22.966Z,100.00
2019-05-26T06:04:26.623Z,100.00
2019-05-26T06:09:28.439Z,100.00
2019-05-26T06:14:30.514Z,100.00
2019-05-26T06:19:32.320Z,100.00
2019-05-26T06:24:34.190Z,100.00
2019-05-26T06:29:36.045Z,100.00
2019-05-26T06:34:38.181Z,100.00
2019-05-26T06:39:42.708Z,100.00
2019-05-26T06:44:53.655Z,100.00
2019-05-26T06:49:51.373Z,100.00
2019-05-26T06:54:57.919Z,100.00
2019-05-26T06:59:59.776Z,100.00
2019-05-26T07:05:01.840Z,100.00
2019-05-26T07:10:04.150Z,100.00
2019-05-26T07:15:06.650Z,100.00
2019-05-26T07:20:08.768Z,100.00
2019-05-26T07:25:10.876Z,100.00
2019-05-26T07:30:12.829Z,100.00
2019-05-26T07:35:14.914Z,100.00
2019-05-26T07:40:19.069Z,100.00
2019-05-26T07:45:20.951Z,100.00
2019-05-26T07:50:22.750Z,100.00
2019-05-26T07:55:24.834Z,100.00
2019-05-26T08:00:30.148Z,100.00
2019-05-26T08:05:32.248Z,100.00
2019-05-26T08:10:35.477Z,100.00
2019-05-26T08:15:40.372Z,100.00
2019-05-26T08:20:44.819Z,100.00
2019-05-26T08:25:46.652Z,100.00
2019-05-26T08:30:48.455Z,100.00
2019-05-26T08:35:53.000Z,100.00
2019-05-26T08:40:54.803Z,100.00
2019-05-26T08:46:00.599Z,100.00
2019-05-26T08:51:02.459Z,100.00
2019-05-26T08:56:07.332Z,100.00
2019-05-26T09:01:09.123Z,100.00
2019-05-26T09:06:16.160Z,100.00
2019-05-26T09:11:17.993Z,100.00
2019-05-26T09:16:22.903Z,100.00
2019-05-26T09:21:24.714Z,100.00
2019-05-26T09:26:26.683Z,100.00
2019-05-26T09:31:28.476Z,100.00
2019-05-26T09:36:30.175Z,100.00
2019-05-26T09:41:31.984Z,100.00
2019-05-26T09:46:38.741Z,100.00
2019-05-26T09:51:43.689Z,100.00
2019-05-26T09:56:48.529Z,100.00
2019-05-26T10:01:50.328Z,100.00
2019-05-26T10:06:52.139Z,100.00
2019-05-26T10:11:58.836Z,100.00
2019-05-26T10:17:03.848Z,100.00
2019-05-26T10:22:05.643Z,100.00
2019-05-26T10:27:07.679Z,100.00
2019-05-26T10:32:11.632Z,100.00
2019-05-26T10:37:15.227Z,100.00
2019-05-26T10:42:17.044Z,100.00
2019-05-26T10:47:21.407Z,100.00
2019-05-26T10:52:23.199Z,100.00
2019-05-26T10:57:25.105Z,100.00
2019-05-26T11:02:26.892Z,100.00
2019-05-26T11:07:28.756Z,100.00
2019-05-26T11:12:36.176Z,100.00
2019-05-26T11:17:39.225Z,100.00
2019-05-26T11:22:41.041Z,100.00
2019-05-26T11:27:45.967Z,100.00
2019-05-26T11:32:49.654Z,100.00
2019-05-26T11:37:51.705Z,100.00
2019-05-26T11:42:56.047Z,100.00
2019-05-26T11:47:59.270Z,100.00
2019-05-26T11:53:03.913Z,100.00
2019-05-26T11:58:06.042Z,100.00
2019-05-26T12:03:07.854Z,100.00
2019-05-26T12:08:09.857Z,100.00
2019-05-26T12:13:12.878Z,100.00
2019-05-26T12:18:14.958Z,100.00
2019-05-26T12:23:16.720Z,100.00
2019-05-26T12:28:20.614Z,100.00
2019-05-26T12:33:24.813Z,100.00
2019-05-26T12:38:28.950Z,100.00
2019-05-26T12:43:32.228Z,100.00
2019-05-26T12:48:36.341Z,100.00
2019-05-26T12:53:38.229Z,100.00
2019-05-26T12:58:40.035Z,100.00
2019-05-26T13:03:41.780Z,100.00
2019-05-26T13:08:47.766Z,100.00
2019-05-26T13:13:51.691Z,100.00
2019-05-26T13:18:53.542Z,100.00
2019-05-26T13:23:55.389Z,100.00
2019-05-26T13:28:58.941Z,99.79
2019-05-26T13:34:00.806Z,100.00
2019-05-26T13:39:04.605Z,100.00
2019-05-26T13:44:06.695Z,100.00
2019-05-26T13:49:08.595Z,99.35
2019-05-26T13:54:10.636Z,93.35
2019-05-26T13:59:12.452Z,93.69
2019-05-26T14:04:14.254Z,97.62
2019-05-26T14:09:18.948Z,97.98
2019-05-26T14:14:21.035Z,99.81
2019-05-26T14:19:26.088Z,100.00
2019-05-26T14:24:28.006Z,100.00
2019-05-26T14:29:29.930Z,100.00
2019-05-26T14:34:32.023Z,99.06
2019-05-26T14:39:33.836Z,96.61
2019-05-26T14:44:35.685Z,97.32
2019-05-26T14:49:37.502Z,98.47
2019-05-26T14:54:41.058Z,93.79
2019-05-26T14:59:43.232Z,93.48
2019-05-26T15:04:47.912Z,95.82
2019-05-26T15:09:52.374Z,94.09
2019-05-26T15:14:54.370Z,96.73
2019-05-26T15:19:58.308Z,97.91
2019-05-26T15:25:04.142Z,97.06
2019-05-26T15:30:08.396Z,99.64
2019-05-26T15:35:11.150Z,100.00
2019-05-26T15:40:13.154Z,100.00
2019-05-26T15:45:17.110Z,100.00
2019-05-26T15:50:19.020Z,100.00
2019-05-26T15:55:20.946Z,100.00
2019-05-26T16:00:22.948Z,100.00
2019-05-26T16:05:27.564Z,100.00
2019-05-26T16:10:29.410Z,100.00
2019-05-26T16:15:31.377Z,100.00
2019-05-26T16:20:33.201Z,100.00
2019-05-26T16:25:35.231Z,100.00
2019-05-26T16:30:37.065Z,100.00
2019-05-26T16:35:38.957Z,100.00
2019-05-26T16:40:41.103Z,100.00
2019-05-26T16:45:55.682Z,100.00
2019-05-26T16:50:46.913Z,100.00
2019-05-26T16:55:48.976Z,100.00
2019-05-26T17:00:50.798Z,100.00
2019-05-26T17:06:06.977Z,100.00
2019-05-26T17:10:56.356Z,100.00
2019-05-26T17:16:00.838Z,100.00
2019-05-26T17:21:02.681Z,100.00
2019-05-26T17:26:04.567Z,100.00
2019-05-26T17:31:06.378Z,100.00
2019-05-26T17:36:10.307Z,100.00
2019-05-26T17:41:13.429Z,100.00
2019-05-26T17:46:18.310Z,100.00
2019-05-26T17:51:20.008Z,100.00
2019-05-26T17:56:21.952Z,100.00
2019-05-26T18:01:28.454Z,100.00
2019-05-26T18:06:30.533Z,100.00
2019-05-26T18:11:32.328Z,100.00
2019-05-26T18:16:34.115Z,100.00
2019-05-26T18:21:35.934Z,100.00
2019-05-26T18:26:39.060Z,100.00
2019-05-26T18:31:40.862Z,100.00
2019-05-26T18:36:42.667Z,100.00
2019-05-26T18:41:44.465Z,100.00
2019-05-26T18:46:47.794Z,100.00
2019-05-26T18:51:51.077Z,100.00
2019-05-26T18:56:53.186Z,100.00
2019-05-26T19:01:55.082Z,100.00
2019-05-26T19:06:57.079Z,100.00
2019-05-26T19:11:59.062Z,100.00
2019-05-26T19:17:01.070Z,100.00
2019-05-26T19:22:02.884Z,100.00
2019-05-26T19:27:05.977Z,100.00
2019-05-26T19:32:09.221Z,100.00
2019-05-26T19:37:12.313Z,100.00
2019-05-26T19:42:14.302Z,100.00
2019-05-26T19:47:16.290Z,100.00
2019-05-26T19:52:18.118Z,100.00
2019-05-26T19:57:22.213Z,100.00
2019-05-26T20:02:24.015Z,100.00
2019-05-26T20:07:25.909Z,100.00
2019-05-26T20:12:27.804Z,100.00
2019-05-26T20:17:29.806Z,100.00
2019-05-26T20:22:32.874Z,100.00
2019-05-26T20:27:35.010Z,100.00
2019-05-26T20:32:38.226Z,100.00
2019-05-26T20:37:40.108Z,100.00
2019-05-26T20:42:48.198Z,100.00
2019-05-26T20:47:50.176Z,100.00
2019-05-26T20:52:52.057Z,100.00
2019-05-26T20:57:56.647Z,100.00
2019-05-26T21:03:01.421Z,100.00
2019-05-26T21:08:04.335Z,100.00
2019-05-26T21:13:06.163Z,100.00
2019-05-26T21:18:08.202Z,100.00
2019-05-26T21:23:10.006Z,100.00
2019-05-26T21:28:11.879Z,100.00
2019-05-26T21:33:15.282Z,100.00
2019-05-26T21:38:17.164Z,100.00
2019-05-26T21:43:21.855Z,100.00
2019-05-26T21:48:25.660Z,100.00
2019-05-26T21:53:27.560Z,100.00
2019-05-26T21:58:35.925Z,100.00
2019-05-26T22:03:38.057Z,100.00
2019-05-26T22:08:39.893Z,100.00
2019-05-26T22:13:41.530Z,100.00
2019-05-26T22:18:43.337Z,100.00
2019-05-26T22:23:45.162Z,100.00
2019-05-26T22:28:46.968Z,100.00
2019-05-26T22:33:48.777Z,100.00
2019-05-26T22:38:52.595Z,100.00
2019-05-26T22:43:54.494Z,100.00
2019-05-26T22:48:56.291Z,100.00
2019-05-26T22:53:58.172Z,100.00
2019-05-26T22:58:59.942Z,100.00
2019-05-26T23:04:03.298Z,100.00
2019-05-26T23:09:05.953Z,100.00
2019-05-26T23:14:07.716Z,100.00
2019-05-26T23:19:18.705Z,100.00
2019-05-26T23:24:13.498Z,100.00
2019-05-26T23:29:15.274Z,100.00
2019-05-26T23:34:16.967Z,100.00
2019-05-26T23:39:18.763Z,100.00
2019-05-26T23:44:21.957Z,100.00
2019-05-26T23:49:23.787Z,100.00
2019-05-26T23:54:27.951Z,100.00
2019-05-26T23:59:29.656Z,100.00
